createdAt,value
2022-11-17T00:01:20.240Z,98094.38
2022-11-17T00:03:48.117Z,98092.50
2022-11-17T00:06:15.598Z,98097.88
2022-11-17T00:08:42.819Z,98098.31
2022-11-17T00:11:10.292Z,98097.78
2022-11-17T00:13:56.009Z,98100.38
2022-11-17T00:16:23.443Z,98100.66
2022-11-17T00:19:09.311Z,98097.78
2022-11-17T00:21:38.743Z,98092.94
2022-11-17T00:24:06.365Z,98087.16
2022-11-17T00:26:34.511Z,98082.06
2022-11-17T00:29:04.621Z,98087.22
2022-11-17T00:31:51.792Z,98084.34
2022-11-17T00:34:22.810Z,98087.75
2022-11-17T00:36:53.305Z,98092.78
2022-11-17T00:39:21.688Z,98086.94
2022-11-17T00:41:48.864Z,98084.66
2022-11-17T00:44:17.673Z,98083.00
2022-11-17T00:46:45.180Z,98083.16
2022-11-17T00:49:12.787Z,98097.75
2022-11-17T00:51:40.181Z,98086.47
2022-11-17T00:54:08.124Z,98076.47
2022-11-17T00:56:35.351Z,98084.38
2022-11-17T00:59:02.567Z,98085.50
2022-11-17T01:01:30.271Z,98080.78
2022-11-17T01:04:05.430Z,98076.53
2022-11-17T01:06:36.740Z,98071.72
2022-11-17T01:09:05.141Z,98077.81
2022-11-17T01:11:32.605Z,98066.53
2022-11-17T01:14:00.229Z,98059.28
2022-11-17T01:16:27.667Z,98059.69
2022-11-17T01:18:55.261Z,98058.41
2022-11-17T01:21:23.284Z,98052.47
2022-11-17T01:23:52.077Z,98045.25
2022-11-17T01:26:20.914Z,98045.44
2022-11-17T01:28:48.272Z,98045.59
2022-11-17T01:31:19.447Z,98051.66
2022-11-17T01:33:47.176Z,98044.31
2022-11-17T01:36:15.650Z,98048.84
2022-11-17T01:38:43.048Z,98042.28
2022-11-17T01:41:15.093Z,98041.78
2022-11-17T01:43:43.642Z,98044.31
2022-11-17T01:46:15.839Z,98046.69
2022-11-17T01:48:43.223Z,98041.09
2022-11-17T01:51:11.418Z,98045.31
2022-11-17T01:53:39.242Z,98047.66
2022-11-17T01:56:07.708Z,98058.56
2022-11-17T01:58:36.516Z,98057.56
2022-11-17T02:01:03.893Z,98064.56
2022-11-17T02:03:33.154Z,98061.59
2022-11-17T02:06:03.168Z,98067.75
2022-11-17T02:08:30.815Z,98064.06
2022-11-17T02:10:58.084Z,98072.13
2022-11-17T02:13:25.580Z,98082.03
2022-11-17T02:15:52.895Z,98068.41
2022-11-17T02:18:20.195Z,98074.13
2022-11-17T02:20:59.957Z,98078.44
2022-11-17T02:23:37.609Z,98063.63
2022-11-17T02:26:22.705Z,98060.06
2022-11-17T02:29:10.179Z,98053.47
2022-11-17T02:31:40.373Z,98047.31
2022-11-17T02:34:46.628Z,98046.94
2022-11-17T02:37:25.992Z,98045.03
2022-11-17T02:40:00.324Z,98041.91
2022-11-17T02:42:48.431Z,98044.59
2022-11-17T02:45:20.493Z,98036.59
2022-11-17T02:47:48.381Z,98033.56
2022-11-17T02:50:15.563Z,98030.22
2022-11-17T02:52:42.743Z,98030.06
2022-11-17T02:55:10.534Z,98040.78
2022-11-17T02:57:38.796Z,98053.19
2022-11-17T03:00:07.768Z,98038.41
2022-11-17T03:02:50.593Z,98036.44
2022-11-17T03:05:23.494Z,98031.91
2022-11-17T03:07:57.091Z,98015.44
2022-11-17T03:10:47.596Z,98016.06
2022-11-17T03:13:18.035Z,98006.25
2022-11-17T03:15:55.469Z,98012.28
2022-11-17T03:18:35.933Z,98004.75
2022-11-17T03:21:10.667Z,98005.75
2022-11-17T03:23:50.126Z,98004.72
2022-11-17T03:26:18.980Z,97999.69
2022-11-17T03:28:46.662Z,97998.34
2022-11-17T03:31:13.902Z,97994.44
2022-11-17T03:33:41.123Z,97992.31
2022-11-17T03:36:19.186Z,97999.06
2022-11-17T03:38:48.580Z,98008.28
2022-11-17T03:41:16.073Z,98025.81
2022-11-17T03:43:43.236Z,98026.34
2022-11-17T03:46:10.978Z,98040.06
2022-11-17T03:48:41.105Z,98045.22
2022-11-17T03:51:09.535Z,98053.47
2022-11-17T03:53:37.220Z,98055.75
2022-11-17T03:56:23.962Z,98067.72
2022-11-17T03:58:55.401Z,98068.06
2022-11-17T04:01:23.060Z,98069.50
2022-11-17T04:03:50.549Z,98068.75
2022-11-17T04:06:17.730Z,98068.88
2022-11-17T04:08:44.935Z,98067.59
2022-11-17T04:11:31.005Z,98061.09
2022-11-17T04:14:16.674Z,98054.78
2022-11-17T04:16:44.142Z,98055.81
2022-11-17T04:19:11.331Z,98046.44
2022-11-17T04:21:38.561Z,98051.19
2022-11-17T04:24:06.304Z,98052.34
2022-11-17T04:26:52.422Z,98045.81
2022-11-17T04:29:19.999Z,98055.06
2022-11-17T04:31:47.239Z,98056.22
2022-11-17T04:34:14.395Z,98043.97
2022-11-17T04:36:45.216Z,98047.16
2022-11-17T04:39:13.044Z,98057.06
2022-11-17T04:42:03.081Z,98054.53
2022-11-17T04:44:31.509Z,98053.19
2022-11-17T04:46:58.827Z,98052.69
2022-11-17T04:49:26.194Z,98060.25
2022-11-17T04:51:53.744Z,98063.66
2022-11-17T04:54:22.162Z,98057.19
2022-11-17T04:56:49.363Z,98059.50
2022-11-17T04:59:16.935Z,98071.38
2022-11-17T05:01:44.217Z,98080.28
2022-11-17T05:04:12.358Z,98085.16
2022-11-17T05:06:41.232Z,98092.53
2022-11-17T05:09:12.158Z,98100.25
2022-11-17T05:11:58.675Z,98094.91
2022-11-17T05:14:26.333Z,98096.91
2022-11-17T05:17:10.506Z,98096.94
2022-11-17T05:19:38.296Z,98096.44
2022-11-17T05:22:28.689Z,98098.50
2022-11-17T05:24:56.083Z,98100.69
2022-11-17T05:27:23.982Z,98099.50
2022-11-17T05:29:51.339Z,98092.97
2022-11-17T05:32:18.545Z,98094.63
2022-11-17T05:34:45.977Z,98092.97
2022-11-17T05:37:13.182Z,98090.44
2022-11-17T05:39:40.454Z,98085.88
2022-11-17T05:42:08.000Z,98081.06
2022-11-17T05:44:35.213Z,98083.38
2022-11-17T05:47:02.408Z,98081.72
2022-11-17T05:49:29.933Z,98093.09
2022-11-17T05:51:57.091Z,98096.63
2022-11-17T05:54:24.330Z,98101.13
2022-11-17T05:56:51.949Z,98111.22
2022-11-17T05:59:38.084Z,98102.84
2022-11-17T06:02:10.236Z,98109.22
2022-11-17T06:04:38.179Z,98113.25
2022-11-17T06:07:05.443Z,98125.66
2022-11-17T06:09:33.241Z,98127.41
2022-11-17T06:12:05.613Z,98122.44
2022-11-17T06:14:34.270Z,98124.22
2022-11-17T06:17:22.794Z,98119.84
2022-11-17T06:19:55.187Z,98120.19
2022-11-17T06:22:22.824Z,98107.66
2022-11-17T06:24:50.116Z,98115.56
2022-11-17T06:27:17.523Z,98118.25
2022-11-17T06:29:45.343Z,98117.41
2022-11-17T06:32:13.620Z,98105.69
2022-11-17T06:34:41.435Z,98109.91
2022-11-17T06:37:08.892Z,98105.84
2022-11-17T06:39:36.070Z,98103.00
2022-11-17T06:42:03.333Z,98111.41
2022-11-17T06:44:30.852Z,98119.59
2022-11-17T06:46:58.080Z,98125.00
2022-11-17T06:49:25.227Z,98129.03
2022-11-17T06:51:53.135Z,98137.66
2022-11-17T06:54:20.414Z,98141.50
2022-11-17T06:56:49.694Z,98135.66
2022-11-17T06:59:17.275Z,98130.53
2022-11-17T07:01:44.508Z,98139.94
2022-11-17T07:04:11.779Z,98144.81
2022-11-17T07:06:39.398Z,98148.31
2022-11-17T07:09:06.670Z,98149.81
2022-11-17T07:11:34.610Z,98144.94
2022-11-17T07:14:02.180Z,98145.25
2022-11-17T07:16:30.794Z,98147.63
2022-11-17T07:18:59.323Z,98152.34
2022-11-17T07:21:26.952Z,98147.31
2022-11-17T07:23:54.158Z,98145.09
2022-11-17T07:26:21.405Z,98146.25
2022-11-17T07:28:48.897Z,98148.84
2022-11-17T07:31:16.691Z,98155.56
2022-11-17T07:33:43.924Z,98152.03
2022-11-17T07:36:12.305Z,98160.91
2022-11-17T07:38:40.172Z,98147.66
2022-11-17T07:41:08.858Z,98158.22
2022-11-17T07:43:36.666Z,98167.53
2022-11-17T07:46:04.484Z,98168.41
2022-11-17T07:48:32.759Z,98162.25
2022-11-17T07:51:00.558Z,98163.50
2022-11-17T07:53:28.095Z,98169.28
2022-11-17T07:55:55.554Z,98166.31
2022-11-17T07:58:25.563Z,98157.44
2022-11-17T08:00:53.575Z,98160.94
2022-11-17T08:03:21.100Z,98162.16
2022-11-17T08:05:48.367Z,98159.13
2022-11-17T08:08:15.623Z,98158.19
2022-11-17T08:10:43.159Z,98158.09
2022-11-17T08:13:11.363Z,98152.41
2022-11-17T08:15:38.557Z,98155.03
2022-11-17T08:18:06.354Z,98158.66
2022-11-17T08:20:33.893Z,98162.38
2022-11-17T08:23:01.096Z,98167.09
2022-11-17T08:25:28.588Z,98171.53
2022-11-17T08:27:56.257Z,98177.56
2022-11-17T08:30:24.018Z,98178.56
2022-11-17T08:32:52.598Z,98176.28
2022-11-17T08:35:21.165Z,98184.03
2022-11-17T08:37:48.422Z,98178.69
2022-11-17T08:40:15.995Z,98170.72
2022-11-17T08:42:43.207Z,98184.88
2022-11-17T08:45:10.747Z,98192.22
2022-11-17T08:47:38.220Z,98189.22
2022-11-17T08:50:05.929Z,98197.13
2022-11-17T08:52:33.207Z,98199.12
2022-11-17T08:55:00.808Z,98198.31
2022-11-17T08:57:31.623Z,98205.59
2022-11-17T08:59:58.943Z,98195.44
2022-11-17T09:02:26.410Z,98202.34
2022-11-17T09:04:53.711Z,98198.50
2022-11-17T09:07:20.972Z,98204.72
2022-11-17T09:09:48.710Z,98200.00
2022-11-17T09:12:16.128Z,98200.78
2022-11-17T09:14:43.828Z,98197.63
2022-11-17T09:17:11.257Z,98209.16
2022-11-17T09:19:38.440Z,98219.41
2022-11-17T09:22:06.282Z,98218.63
2022-11-17T09:24:33.786Z,98216.78
2022-11-17T09:27:03.021Z,98214.09
2022-11-17T09:29:30.454Z,98215.13
2022-11-17T09:31:58.007Z,98212.44
2022-11-17T09:34:25.664Z,98210.00
2022-11-17T09:36:52.889Z,98207.16
2022-11-17T09:39:21.429Z,98209.47
2022-11-17T09:41:49.742Z,98207.94
2022-11-17T09:44:20.015Z,98203.69
2022-11-17T09:47:06.155Z,98193.47
2022-11-17T09:49:42.564Z,98196.94
2022-11-17T09:52:12.815Z,98200.22
2022-11-17T09:54:43.886Z,98195.78
2022-11-17T09:57:21.360Z,98192.66
2022-11-17T09:59:49.973Z,98189.38
2022-11-17T10:02:17.548Z,98181.53
2022-11-17T10:04:45.019Z,98177.59
2022-11-17T10:07:12.240Z,98179.19
2022-11-17T10:09:41.680Z,98170.59
2022-11-17T10:12:20.229Z,98181.63
2022-11-17T10:14:50.693Z,98187.56
2022-11-17T10:17:18.363Z,98176.19
2022-11-17T10:19:45.593Z,98177.72
2022-11-17T10:22:16.678Z,98181.16
2022-11-17T10:24:47.598Z,98179.56
2022-11-17T10:27:17.973Z,98183.84
2022-11-17T10:29:58.700Z,98177.91
2022-11-17T10:32:26.700Z,98180.56
2022-11-17T10:34:55.144Z,98177.00
2022-11-17T10:37:27.031Z,98175.19
2022-11-17T10:40:09.205Z,98169.59
2022-11-17T10:42:36.769Z,98174.75
2022-11-17T10:45:04.382Z,98179.59
2022-11-17T10:47:39.152Z,98188.66
2022-11-17T10:50:12.358Z,98182.47
2022-11-17T10:52:39.597Z,98193.97
2022-11-17T10:55:22.539Z,98189.72
2022-11-17T10:57:57.165Z,98189.09
2022-11-17T11:00:28.471Z,98183.41
2022-11-17T11:03:06.529Z,98183.75
2022-11-17T11:05:33.997Z,98179.50
2022-11-17T11:08:15.139Z,98183.72
2022-11-17T11:10:42.582Z,98173.75
2022-11-17T11:13:12.813Z,98173.13
2022-11-17T11:15:40.168Z,98161.00
2022-11-17T11:18:11.813Z,98160.44
2022-11-17T11:20:59.895Z,98155.97
2022-11-17T11:23:31.371Z,98171.47
2022-11-17T11:26:11.253Z,98173.50
2022-11-17T11:28:44.325Z,98171.09
2022-11-17T11:31:33.379Z,98183.81
2022-11-17T11:34:05.709Z,98175.84
2022-11-17T11:36:53.143Z,98173.41
2022-11-17T11:39:35.979Z,98173.91
2022-11-17T11:42:07.784Z,98182.81
2022-11-17T11:44:47.545Z,98174.72
2022-11-17T11:47:33.757Z,98183.66
2022-11-17T11:50:13.381Z,98173.81
2022-11-17T11:52:40.862Z,98166.56
2022-11-17T11:55:27.195Z,98164.34
2022-11-17T11:58:00.490Z,98168.38
2022-11-17T12:00:27.988Z,98165.38
2022-11-17T12:03:18.805Z,98169.13
2022-11-17T12:05:46.088Z,98170.03
2022-11-17T12:08:28.920Z,98165.06
2022-11-17T12:11:25.200Z,98173.97
2022-11-17T12:13:54.441Z,98176.34
2022-11-17T12:16:29.234Z,98170.41
2022-11-17T12:18:56.739Z,98159.84
2022-11-17T12:21:24.783Z,98161.16
2022-11-17T12:24:08.412Z,98168.25
2022-11-17T12:26:36.502Z,98174.09
2022-11-17T12:29:22.206Z,98175.38
2022-11-17T12:31:49.681Z,98171.56
2022-11-17T12:34:23.074Z,98176.06
2022-11-17T12:37:23.107Z,98182.72
2022-11-17T12:40:00.412Z,98173.88
2022-11-17T12:42:28.539Z,98175.59
2022-11-17T12:44:56.823Z,98180.19
2022-11-17T12:47:24.975Z,98172.50
2022-11-17T12:49:52.535Z,98176.50
2022-11-17T12:52:45.888Z,98175.97
2022-11-17T12:55:28.548Z,98180.03
2022-11-17T12:58:16.007Z,98170.44
2022-11-17T13:00:52.868Z,98176.56
2022-11-17T13:03:26.420Z,98170.97
2022-11-17T13:06:33.808Z,98178.03
2022-11-17T13:09:01.057Z,98174.31
2022-11-17T13:11:28.876Z,98189.94
2022-11-17T13:14:08.779Z,98198.41
2022-11-17T13:16:37.433Z,98192.13
2022-11-17T13:19:21.681Z,98188.38
2022-11-17T13:21:49.202Z,98183.84
2022-11-17T13:24:28.083Z,98191.19
2022-11-17T13:26:59.560Z,98197.38
2022-11-17T13:29:26.838Z,98193.63
2022-11-17T13:32:13.709Z,98196.06
2022-11-17T13:34:48.353Z,98200.28
2022-11-17T13:37:18.390Z,98200.81
2022-11-17T13:39:55.758Z,98207.00
2022-11-17T13:42:23.626Z,98212.66
2022-11-17T13:44:51.138Z,98212.66
2022-11-17T13:47:28.510Z,98206.81
2022-11-17T13:49:56.011Z,98203.97
2022-11-17T13:52:46.934Z,98212.44
2022-11-17T13:55:16.375Z,98204.06
2022-11-17T13:57:51.556Z,98210.53
2022-11-17T14:00:19.161Z,98208.44
2022-11-17T14:02:57.076Z,98211.97
2022-11-17T14:05:26.599Z,98204.84
2022-11-17T14:07:54.629Z,98202.81
2022-11-17T14:10:21.919Z,98196.41
2022-11-17T14:12:49.693Z,98205.47
2022-11-17T14:15:23.306Z,98207.12
2022-11-17T14:17:51.011Z,98199.84
2022-11-17T14:20:38.885Z,98194.84
2022-11-17T14:23:09.083Z,98196.78
2022-11-17T14:25:40.280Z,98188.97
2022-11-17T14:28:14.390Z,98194.66
2022-11-17T14:30:41.995Z,98195.31
2022-11-17T14:33:13.334Z,98192.00
2022-11-17T14:35:41.137Z,98194.72
2022-11-17T14:38:15.782Z,98203.66
2022-11-17T14:40:42.978Z,98199.34
2022-11-17T14:43:10.452Z,98218.13
2022-11-17T14:45:37.680Z,98222.31
2022-11-17T14:48:07.938Z,98215.25
2022-11-17T14:50:35.426Z,98207.72
2022-11-17T14:53:02.622Z,98199.84
2022-11-17T14:55:29.906Z,98206.25
2022-11-17T14:57:57.405Z,98195.25
2022-11-17T15:00:24.594Z,98202.16
2022-11-17T15:02:51.792Z,98207.78
2022-11-17T15:05:19.315Z,98200.50
2022-11-17T15:07:46.522Z,98197.53
2022-11-17T15:10:13.727Z,98197.97
2022-11-17T15:12:41.207Z,98193.88
2022-11-17T15:15:08.836Z,98194.72
2022-11-17T15:17:36.111Z,98199.12
2022-11-17T15:20:04.150Z,98206.34
2022-11-17T15:22:31.382Z,98202.87
2022-11-17T15:24:58.605Z,98208.06
2022-11-17T15:27:26.134Z,98219.16
2022-11-17T15:29:54.080Z,98210.50
2022-11-17T15:32:21.359Z,98213.59
2022-11-17T15:34:48.851Z,98224.56
2022-11-17T15:37:16.058Z,98215.38
2022-11-17T15:39:43.395Z,98195.81
2022-11-17T15:42:10.898Z,98198.12
2022-11-17T15:44:38.108Z,98202.25
2022-11-17T15:47:06.134Z,98196.41
2022-11-17T15:49:33.703Z,98196.66
2022-11-17T15:52:00.939Z,98197.94
2022-11-17T15:54:28.176Z,98190.38
2022-11-17T15:56:55.731Z,98197.44
2022-11-17T15:59:22.988Z,98196.91
2022-11-17T16:01:50.195Z,98198.34
2022-11-17T16:04:18.111Z,98194.06
2022-11-17T16:06:45.979Z,98188.59
2022-11-17T16:09:13.597Z,98190.84
2022-11-17T16:11:41.326Z,98185.97
2022-11-17T16:14:08.856Z,98186.66
2022-11-17T16:16:37.203Z,98182.41
2022-11-17T16:19:04.896Z,98169.44
2022-11-17T16:21:32.278Z,98162.53
2022-11-17T16:24:00.845Z,98158.00
2022-11-17T16:26:28.568Z,98167.56
2022-11-17T16:28:56.764Z,98172.47
2022-11-17T16:31:24.783Z,98180.16
2022-11-17T16:33:53.503Z,98179.84
2022-11-17T16:36:21.855Z,98186.59
2022-11-17T16:39:01.778Z,98200.72
2022-11-17T16:41:31.353Z,98207.47
2022-11-17T16:43:58.817Z,98222.88
2022-11-17T16:46:27.140Z,98234.50
2022-11-17T16:48:54.676Z,98241.03
2022-11-17T16:51:21.966Z,98250.59
2022-11-17T16:53:54.749Z,98245.06
2022-11-17T16:56:22.290Z,98245.69
2022-11-17T16:58:50.193Z,98258.69
2022-11-17T17:01:24.495Z,98263.97
2022-11-17T17:03:58.594Z,98271.47
2022-11-17T17:06:26.058Z,98268.81
2022-11-17T17:08:57.970Z,98261.66
2022-11-17T17:11:25.465Z,98267.22
2022-11-17T17:13:52.699Z,98267.28
2022-11-17T17:16:20.517Z,98271.97
2022-11-17T17:18:47.757Z,98272.50
2022-11-17T17:21:16.079Z,98261.78
2022-11-17T17:23:45.241Z,98256.78
2022-11-17T17:26:18.208Z,98255.22
2022-11-17T17:28:46.379Z,98261.47
2022-11-17T17:31:20.772Z,98269.56
2022-11-17T17:33:50.507Z,98264.34
2022-11-17T17:36:18.623Z,98253.81
2022-11-17T17:38:50.308Z,98253.47
2022-11-17T17:41:22.430Z,98254.00
2022-11-17T17:43:54.076Z,98251.25
2022-11-17T17:46:21.663Z,98252.41
2022-11-17T17:48:49.516Z,98241.00
2022-11-17T17:51:18.259Z,98241.72
2022-11-17T17:53:46.400Z,98241.72
2022-11-17T17:56:14.132Z,98238.69
2022-11-17T17:58:41.541Z,98246.00
2022-11-17T18:01:14.127Z,98246.84
2022-11-17T18:03:48.392Z,98235.63
2022-11-17T18:06:16.664Z,98240.81
2022-11-17T18:08:44.491Z,98248.44
2022-11-17T18:11:12.704Z,98253.81
2022-11-17T18:13:41.517Z,98249.34
2022-11-17T18:16:13.503Z,98240.87
2022-11-17T18:18:41.071Z,98243.94
2022-11-17T18:21:09.605Z,98243.59
2022-11-17T18:23:37.683Z,98234.66
2022-11-17T18:26:12.182Z,98235.22
2022-11-17T18:28:39.806Z,98237.78
2022-11-17T18:31:08.158Z,98226.81
2022-11-17T18:33:35.765Z,98223.50
2022-11-17T18:36:04.344Z,98221.34
2022-11-17T18:38:31.942Z,98224.38
2022-11-17T18:41:03.355Z,98217.44
2022-11-17T18:43:31.702Z,98215.63
2022-11-17T18:46:03.130Z,98212.56
2022-11-17T18:48:34.737Z,98214.19
2022-11-17T18:51:19.070Z,98209.13
2022-11-17T18:53:47.617Z,98205.88
2022-11-17T18:56:15.905Z,98220.75
2022-11-17T18:58:43.487Z,98224.91
2022-11-17T19:01:14.053Z,98230.56
2022-11-17T19:03:42.390Z,98225.13
2022-11-17T19:06:09.851Z,98226.44
2022-11-17T19:08:37.649Z,98226.03
2022-11-17T19:11:06.357Z,98222.91
2022-11-17T19:13:35.062Z,98220.97
2022-11-17T19:16:06.382Z,98212.13
2022-11-17T19:18:33.892Z,98212.84
2022-11-17T19:21:04.955Z,98224.81
2022-11-17T19:23:33.675Z,98220.44
2022-11-17T19:26:08.444Z,98214.53
2022-11-17T19:28:36.470Z,98214.22
2022-11-17T19:31:07.572Z,98208.84
2022-11-17T19:33:35.625Z,98216.63
2022-11-17T19:36:07.396Z,98202.13
2022-11-17T19:38:35.202Z,98219.56
2022-11-17T19:41:03.718Z,98217.78
2022-11-17T19:43:32.578Z,98207.28
2022-11-17T19:46:01.002Z,98194.78
2022-11-17T19:48:29.656Z,98171.19
2022-11-17T19:50:57.395Z,98177.78
2022-11-17T19:53:24.913Z,98176.75
2022-11-17T19:55:52.838Z,98190.91
2022-11-17T19:58:20.618Z,98180.44
2022-11-17T20:00:48.953Z,98176.00
2022-11-17T20:03:16.552Z,98189.94
2022-11-17T20:05:44.269Z,98193.44
2022-11-17T20:08:11.889Z,98210.59
2022-11-17T20:10:39.498Z,98200.47
2022-11-17T20:13:06.914Z,98195.13
2022-11-17T20:15:35.103Z,98197.44
2022-11-17T20:18:02.879Z,98177.06
2022-11-17T20:20:30.235Z,98144.62
2022-11-17T20:22:57.571Z,98176.16
2022-11-17T20:25:25.378Z,98212.00
2022-11-17T20:27:52.846Z,98211.13
2022-11-17T20:30:20.460Z,98208.72
2022-11-17T20:32:48.179Z,98210.56
2022-11-17T20:35:15.587Z,98209.16
2022-11-17T20:37:42.986Z,98219.03
2022-11-17T20:40:11.349Z,98213.88
2022-11-17T20:42:38.635Z,98216.66
2022-11-17T20:45:06.384Z,98214.97
2022-11-17T20:47:34.412Z,98226.84
2022-11-17T20:50:01.772Z,98226.50
2022-11-17T20:52:29.216Z,98216.81
2022-11-17T20:54:56.810Z,98209.28
2022-11-17T20:57:24.057Z,98209.50
2022-11-17T20:59:51.359Z,98204.28
2022-11-17T21:02:18.856Z,98214.97
2022-11-17T21:04:46.089Z,98222.81
2022-11-17T21:07:13.701Z,98192.97
2022-11-17T21:09:41.195Z,98214.97
2022-11-17T21:12:08.618Z,98199.09
2022-11-17T21:14:35.926Z,98197.41
2022-11-17T21:17:03.727Z,98195.91
2022-11-17T21:19:32.415Z,98200.81
2022-11-17T21:22:01.523Z,98204.50
2022-11-17T21:24:29.174Z,98204.34
2022-11-17T21:26:56.960Z,98194.34
2022-11-17T21:29:24.185Z,98203.16
2022-11-17T21:31:51.708Z,98207.84
2022-11-17T21:34:19.096Z,98222.88
2022-11-17T21:36:46.421Z,98217.25
2022-11-17T21:39:18.446Z,98218.50
2022-11-17T21:41:46.120Z,98202.53
2022-11-17T21:44:14.245Z,98211.97
2022-11-17T21:46:41.534Z,98199.28
2022-11-17T21:49:08.849Z,98182.78
2022-11-17T21:51:38.625Z,98176.12
2022-11-17T21:54:07.317Z,98177.88
2022-11-17T21:56:36.510Z,98207.72
2022-11-17T21:59:04.935Z,98203.00
2022-11-17T22:01:32.903Z,98191.06
2022-11-17T22:04:00.549Z,98204.19
2022-11-17T22:06:28.094Z,98201.16
2022-11-17T22:08:55.613Z,98195.94
2022-11-17T22:11:36.668Z,98209.28
2022-11-17T22:14:14.408Z,98203.19
2022-11-17T22:16:42.656Z,98202.34
2022-11-17T22:19:10.276Z,98200.19
2022-11-17T22:21:37.909Z,98197.44
2022-11-17T22:24:06.143Z,98205.22
2022-11-17T22:26:35.840Z,98189.06
2022-11-17T22:29:03.119Z,98179.50
2022-11-17T22:31:30.609Z,98189.22
2022-11-17T22:33:57.826Z,98187.41
2022-11-17T22:36:25.052Z,98180.19
2022-11-17T22:38:52.668Z,98190.12
2022-11-17T22:41:20.747Z,98179.22
2022-11-17T22:43:51.492Z,98184.41
2022-11-17T22:46:19.445Z,98173.88
2022-11-17T22:48:46.841Z,98187.37
2022-11-17T22:51:34.374Z,98181.53
2022-11-17T22:54:01.905Z,98176.50
2022-11-17T22:56:29.137Z,98175.53
2022-11-17T22:58:59.684Z,98150.94
2022-11-17T23:01:27.527Z,98159.72
2022-11-17T23:03:54.802Z,98159.53
2022-11-17T23:06:24.754Z,98155.69
2022-11-17T23:08:52.221Z,98154.22
2022-11-17T23:11:36.433Z,98160.78
2022-11-17T23:14:05.577Z,98160.34
2022-11-17T23:16:33.255Z,98166.75
2022-11-17T23:19:00.522Z,98170.13
2022-11-17T23:21:28.061Z,98157.16
2022-11-17T23:23:55.381Z,98155.94
2022-11-17T23:26:22.742Z,98160.34
2022-11-17T23:28:50.267Z,98162.53
2022-11-17T23:31:17.690Z,98163.50
2022-11-17T23:33:45.539Z,98165.91
2022-11-17T23:36:14.113Z,98153.09
2022-11-17T23:38:41.321Z,98153.59
2022-11-17T23:41:09.458Z,98158.44
2022-11-17T23:43:36.939Z,98154.22
2022-11-17T23:46:04.789Z,98157.72
2022-11-17T23:48:31.993Z,98156.59
2022-11-17T23:50:59.501Z,98158.44
2022-11-17T23:53:26.674Z,98144.50
2022-11-17T23:55:54.574Z,98141.75
2022-11-17T23:58:22.222Z,98142.44
